sensor_id;sensor_type;location;lat;lon;timestamp;temperature;humidity
4604;DHT22;2314;48.272;11.562;2023-12-20T00:02:16;5.70;99.90
4604;DHT22;2314;48.272;11.562;2023-12-20T00:04:43;5.70;99.90
4604;DHT22;2314;48.272;11.562;2023-12-20T00:07:10;5.80;99.90
4604;DHT22;2314;48.272;11.562;2023-12-20T00:09:37;5.80;99.90
4604;DHT22;2314;48.272;11.562;2023-12-20T00:12:05;5.80;99.90
4604;DHT22;2314;48.272;11.562;2023-12-20T00:14:32;5.80;99.90
4604;DHT22;2314;48.272;11.562;2023-12-20T00:17:00;5.90;99.90
4604;DHT22;2314;48.272;11.562;2023-12-20T00:19:27;5.80;99.90
4604;DHT22;2314;48.272;11.562;2023-12-20T00:21:54;5.90;99.90
4604;DHT22;2314;48.272;11.562;2023-12-20T00:24:21;6.00;99.90
4604;DHT22;2314;48.272;11.562;2023-12-20T00:26:48;6.00;99.90
4604;DHT22;2314;48.272;11.562;2023-12-20T00:29:15;6.00;99.90
4604;DHT22;2314;48.272;11.562;2023-12-20T00:31:42;6.00;99.90
4604;DHT22;2314;48.272;11.562;2023-12-20T00:34:10;6.00;99.90
4604;DHT22;2314;48.272;11.562;2023-12-20T00:36:37;6.00;99.90
4604;DHT22;2314;48.272;11.562;2023-12-20T00:39:04;5.90;99.90
4604;DHT22;2314;48.272;11.562;2023-12-20T00:41:32;6.00;99.90
4604;DHT22;2314;48.272;11.562;2023-12-20T00:43:59;5.90;99.90
4604;DHT22;2314;48.272;11.562;2023-12-20T00:46:26;5.90;99.90
4604;DHT22;2314;48.272;11.562;2023-12-20T00:48:53;5.90;99.90
4604;DHT22;2314;48.272;11.562;2023-12-20T00:51:22;5.90;99.90
4604;DHT22;2314;48.272;11.562;2023-12-20T00:53:49;5.80;99.90
4604;DHT22;2314;48.272;11.562;2023-12-20T00:56:20;5.90;99.90
4604;DHT22;2314;48.272;11.562;2023-12-20T00:58:47;5.90;99.90
4604;DHT22;2314;48.272;11.562;2023-12-20T01:01:14;5.90;99.90
4604;DHT22;2314;48.272;11.562;2023-12-20T01:03:42;5.90;99.90
4604;DHT22;2314;48.272;11.562;2023-12-20T01:06:09;5.80;99.90
4604;DHT22;2314;48.272;11.562;2023-12-20T01:08:37;5.90;99.90
4604;DHT22;2314;48.272;11.562;2023-12-20T01:11:04;5.80;99.90
4604;DHT22;2314;48.272;11.562;2023-12-20T01:13:31;5.80;99.90
4604;DHT22;2314;48.272;11.562;2023-12-20T01:15:58;5.80;99.90
4604;DHT22;2314;48.272;11.562;2023-12-20T01:18:25;5.80;99.90
4604;DHT22;2314;48.272;11.562;2023-12-20T01:20:52;5.90;99.90
4604;DHT22;2314;48.272;11.562;2023-12-20T01:23:19;6.00;99.90
4604;DHT22;2314;48.272;11.562;2023-12-20T01:25:48;6.00;99.90
4604;DHT22;2314;48.272;11.562;2023-12-20T01:28:15;6.00;99.90
4604;DHT22;2314;48.272;11.562;2023-12-20T01:30:42;6.00;99.90
4604;DHT22;2314;48.272;11.562;2023-12-20T01:33:09;6.00;99.90
4604;DHT22;2314;48.272;11.562;2023-12-20T01:35:37;6.00;99.90
4604;DHT22;2314;48.272;11.562;2023-12-20T01:38:04;6.00;99.90
4604;DHT22;2314;48.272;11.562;2023-12-20T01:40:31;6.00;99.90
4604;DHT22;2314;48.272;11.562;2023-12-20T01:43:00;6.00;99.90
4604;DHT22;2314;48.272;11.562;2023-12-20T01:45:27;6.00;99.90
4604;DHT22;2314;48.272;11.562;2023-12-20T01:47:55;6.00;99.90
4604;DHT22;2314;48.272;11.562;2023-12-20T01:50:24;6.00;99.90
4604;DHT22;2314;48.272;11.562;2023-12-20T01:52:52;6.10;99.90
4604;DHT22;2314;48.272;11.562;2023-12-20T01:55:21;6.00;99.90
4604;DHT22;2314;48.272;11.562;2023-12-20T01:57:48;6.00;99.90
4604;DHT22;2314;48.272;11.562;2023-12-20T02:00:18;6.00;99.90
4604;DHT22;2314;48.272;11.562;2023-12-20T02:02:48;6.00;99.90
4604;DHT22;2314;48.272;11.562;2023-12-20T02:05:17;6.00;99.90
4604;DHT22;2314;48.272;11.562;2023-12-20T02:07:45;6.00;99.90
4604;DHT22;2314;48.272;11.562;2023-12-20T02:10:12;5.90;99.90
4604;DHT22;2314;48.272;11.562;2023-12-20T02:12:40;5.90;99.90
4604;DHT22;2314;48.272;11.562;2023-12-20T02:15:07;5.90;99.90
4604;DHT22;2314;48.272;11.562;2023-12-20T02:17:36;5.80;99.90
4604;DHT22;2314;48.272;11.562;2023-12-20T02:20:04;5.80;99.90
4604;DHT22;2314;48.272;11.562;2023-12-20T02:22:33;5.90;99.90
4604;DHT22;2314;48.272;11.562;2023-12-20T02:25:00;5.90;99.90
4604;DHT22;2314;48.272;11.562;2023-12-20T02:27:28;5.90;99.90
4604;DHT22;2314;48.272;11.562;2023-12-20T02:29:55;5.90;99.90
4604;DHT22;2314;48.272;11.562;2023-12-20T02:32:24;6.00;99.90
4604;DHT22;2314;48.272;11.562;2023-12-20T02:34:53;6.00;99.90
4604;DHT22;2314;48.272;11.562;2023-12-20T02:37:20;6.00;99.90
4604;DHT22;2314;48.272;11.562;2023-12-20T02:39:48;6.00;99.90
4604;DHT22;2314;48.272;11.562;2023-12-20T02:42:15;6.00;99.90
4604;DHT22;2314;48.272;11.562;2023-12-20T02:44:42;6.00;99.90
4604;DHT22;2314;48.272;11.562;2023-12-20T02:47:09;6.00;99.90
4604;DHT22;2314;48.272;11.562;2023-12-20T02:49:36;6.00;99.90
4604;DHT22;2314;48.272;11.562;2023-12-20T02:52:03;5.90;99.90
4604;DHT22;2314;48.272;11.562;2023-12-20T02:54:31;6.00;99.90
4604;DHT22;2314;48.272;11.562;2023-12-20T02:56:59;6.00;99.90
4604;DHT22;2314;48.272;11.562;2023-12-20T02:59:26;6.00;99.90
4604;DHT22;2314;48.272;11.562;2023-12-20T03:01:53;5.90;99.90
4604;DHT22;2314;48.272;11.562;2023-12-20T03:04:23;5.90;99.90
4604;DHT22;2314;48.272;11.562;2023-12-20T03:06:50;5.90;99.90
4604;DHT22;2314;48.272;11.562;2023-12-20T03:09:17;5.90;99.90
4604;DHT22;2314;48.272;11.562;2023-12-20T03:11:44;5.90;99.90
4604;DHT22;2314;48.272;11.562;2023-12-20T03:14:13;5.90;99.90
4604;DHT22;2314;48.272;11.562;2023-12-20T03:16:40;6.00;99.90
4604;DHT22;2314;48.272;11.562;2023-12-20T03:19:07;6.00;99.90
4604;DHT22;2314;48.272;11.562;2023-12-20T03:21:33;6.00;99.90
4604;DHT22;2314;48.272;11.562;2023-12-20T03:24:00;6.10;99.90
4604;DHT22;2314;48.272;11.562;2023-12-20T03:26:28;6.20;99.90
4604;DHT22;2314;48.272;11.562;2023-12-20T03:28:55;6.20;99.90
4604;DHT22;2314;48.272;11.562;2023-12-20T03:31:23;6.20;99.90
4604;DHT22;2314;48.272;11.562;2023-12-20T03:33:50;6.30;99.90
4604;DHT22;2314;48.272;11.562;2023-12-20T03:36:19;6.30;99.90
4604;DHT22;2314;48.272;11.562;2023-12-20T03:38:46;6.30;99.90
4604;DHT22;2314;48.272;11.562;2023-12-20T03:41:13;6.30;99.90
4604;DHT22;2314;48.272;11.562;2023-12-20T03:43:40;6.30;99.90
4604;DHT22;2314;48.272;11.562;2023-12-20T03:46:08;6.30;99.90
4604;DHT22;2314;48.272;11.562;2023-12-20T03:48:36;6.30;99.90
4604;DHT22;2314;48.272;11.562;2023-12-20T03:51:03;6.30;99.90
4604;DHT22;2314;48.272;11.562;2023-12-20T03:53:30;6.30;99.90
4604;DHT22;2314;48.272;11.562;2023-12-20T03:55:57;6.30;99.90
4604;DHT22;2314;48.272;11.562;2023-12-20T03:58:24;6.20;99.90
4604;DHT22;2314;48.272;11.562;2023-12-20T04:00:51;6.20;99.90
4604;DHT22;2314;48.272;11.562;2023-12-20T04:03:18;6.10;99.90
4604;DHT22;2314;48.272;11.562;2023-12-20T04:05:46;6.00;99.90
4604;DHT22;2314;48.272;11.562;2023-12-20T04:08:14;5.90;99.90
4604;DHT22;2314;48.272;11.562;2023-12-20T04:10:41;5.80;99.90
4604;DHT22;2314;48.272;11.562;2023-12-20T04:13:08;5.70;99.90
4604;DHT22;2314;48.272;11.562;2023-12-20T04:15:35;5.60;99.90
4604;DHT22;2314;48.272;11.562;2023-12-20T04:18:02;5.50;99.90
4604;DHT22;2314;48.272;11.562;2023-12-20T04:20:29;5.50;99.90
4604;DHT22;2314;48.272;11.562;2023-12-20T04:22:57;5.40;99.90
4604;DHT22;2314;48.272;11.562;2023-12-20T04:25:25;5.30;99.90
4604;DHT22;2314;48.272;11.562;2023-12-20T04:27:52;5.20;99.90
4604;DHT22;2314;48.272;11.562;2023-12-20T04:30:19;5.10;99.90
4604;DHT22;2314;48.272;11.562;2023-12-20T04:32:45;5.10;99.90
4604;DHT22;2314;48.272;11.562;2023-12-20T04:35:13;5.10;99.90
4604;DHT22;2314;48.272;11.562;2023-12-20T04:37:40;5.10;99.90
4604;DHT22;2314;48.272;11.562;2023-12-20T04:40:09;5.10;99.90
4604;DHT22;2314;48.272;11.562;2023-12-20T04:42:37;5.10;99.90
4604;DHT22;2314;48.272;11.562;2023-12-20T04:45:04;5.10;99.90
4604;DHT22;2314;48.272;11.562;2023-12-20T04:47:32;5.10;99.90
4604;DHT22;2314;48.272;11.562;2023-12-20T04:49:59;5.10;99.90
4604;DHT22;2314;48.272;11.562;2023-12-20T04:52:26;5.10;99.90
4604;DHT22;2314;48.272;11.562;2023-12-20T04:54:53;5.10;99.90
4604;DHT22;2314;48.272;11.562;2023-12-20T04:57:21;5.10;99.90
4604;DHT22;2314;48.272;11.562;2023-12-20T04:59:48;5.00;99.90
4604;DHT22;2314;48.272;11.562;2023-12-20T05:02:15;5.00;99.90
4604;DHT22;2314;48.272;11.562;2023-12-20T05:04:42;5.00;99.90
4604;DHT22;2314;48.272;11.562;2023-12-20T05:07:09;4.90;99.90
4604;DHT22;2314;48.272;11.562;2023-12-20T05:09:36;4.90;99.90
4604;DHT22;2314;48.272;11.562;2023-12-20T05:12:04;4.90;99.90
4604;DHT22;2314;48.272;11.562;2023-12-20T05:14:33;4.90;99.90
4604;DHT22;2314;48.272;11.562;2023-12-20T05:17:00;4.90;99.90
4604;DHT22;2314;48.272;11.562;2023-12-20T05:19:28;4.90;99.90
4604;DHT22;2314;48.272;11.562;2023-12-20T05:21:56;4.90;99.90
4604;DHT22;2314;48.272;11.562;2023-12-20T05:24:23;4.90;99.90
4604;DHT22;2314;48.272;11.562;2023-12-20T05:26:50;4.90;99.90
4604;DHT22;2314;48.272;11.562;2023-12-20T05:29:17;4.90;99.90
4604;DHT22;2314;48.272;11.562;2023-12-20T05:31:45;4.80;99.90
4604;DHT22;2314;48.272;11.562;2023-12-20T05:34:12;4.80;99.90
4604;DHT22;2314;48.272;11.562;2023-12-20T05:36:39;4.80;99.90
4604;DHT22;2314;48.272;11.562;2023-12-20T05:39:06;4.80;99.90
4604;DHT22;2314;48.272;11.562;2023-12-20T05:41:33;4.80;99.90
4604;DHT22;2314;48.272;11.562;2023-12-20T05:44:00;4.80;99.90
4604;DHT22;2314;48.272;11.562;2023-12-20T05:46:27;4.80;99.90
4604;DHT22;2314;48.272;11.562;2023-12-20T05:48:56;4.80;99.90
4604;DHT22;2314;48.272;11.562;2023-12-20T05:51:23;4.70;99.90
4604;DHT22;2314;48.272;11.562;2023-12-20T05:53:50;4.70;99.90
4604;DHT22;2314;48.272;11.562;2023-12-20T05:56:17;4.70;99.90
4604;DHT22;2314;48.272;11.562;2023-12-20T05:58:44;4.70;99.90
4604;DHT22;2314;48.272;11.562;2023-12-20T06:01:11;4.70;99.90
4604;DHT22;2314;48.272;11.562;2023-12-20T06:03:42;4.70;99.90
4604;DHT22;2314;48.272;11.562;2023-12-20T06:06:11;4.70;99.90
4604;DHT22;2314;48.272;11.562;2023-12-20T06:08:38;4.70;99.90
4604;DHT22;2314;48.272;11.562;2023-12-20T06:11:05;4.60;99.90
4604;DHT22;2314;48.272;11.562;2023-12-20T06:13:32;4.60;99.90
4604;DHT22;2314;48.272;11.562;2023-12-20T06:15:59;4.60;99.90
4604;DHT22;2314;48.272;11.562;2023-12-20T06:18:26;4.60;99.90
4604;DHT22;2314;48.272;11.562;2023-12-20T06:20:54;4.60;99.90
4604;DHT22;2314;48.272;11.562;2023-12-20T06:23:22;4.60;99.90
4604;DHT22;2314;48.272;11.562;2023-12-20T06:25:49;4.50;99.90
4604;DHT22;2314;48.272;11.562;2023-12-20T06:28:16;4.50;99.90
4604;DHT22;2314;48.272;11.562;2023-12-20T06:30:43;4.50;99.90
4604;DHT22;2314;48.272;11.562;2023-12-20T06:33:12;4.50;99.90
4604;DHT22;2314;48.272;11.562;2023-12-20T06:35:39;4.50;99.90
4604;DHT22;2314;48.272;11.562;2023-12-20T06:38:06;4.40;99.90
4604;DHT22;2314;48.272;11.562;2023-12-20T06:40:36;4.40;99.90
4604;DHT22;2314;48.272;11.562;2023-12-20T06:43:03;4.40;99.90
4604;DHT22;2314;48.272;11.562;2023-12-20T06:45:32;4.30;99.90
4604;DHT22;2314;48.272;11.562;2023-12-20T06:47:59;4.30;99.90
4604;DHT22;2314;48.272;11.562;2023-12-20T06:50:26;4.30;99.90
4604;DHT22;2314;48.272;11.562;2023-12-20T06:52:53;4.20;99.90
4604;DHT22;2314;48.272;11.562;2023-12-20T06:55:20;4.20;99.90
4604;DHT22;2314;48.272;11.562;2023-12-20T06:57:48;4.20;99.90
4604;DHT22;2314;48.272;11.562;2023-12-20T07:00:16;4.10;99.90
4604;DHT22;2314;48.272;11.562;2023-12-20T07:02:45;4.10;99.90
4604;DHT22;2314;48.272;11.562;2023-12-20T07:05:15;4.10;99.90
4604;DHT22;2314;48.272;11.562;2023-12-20T07:07:45;4.10;99.90
4604;DHT22;2314;48.272;11.562;2023-12-20T07:10:12;4.10;99.90
4604;DHT22;2314;48.272;11.562;2023-12-20T07:12:39;4.10;99.90
4604;DHT22;2314;48.272;11.562;2023-12-20T07:15:09;4.10;99.90
4604;DHT22;2314;48.272;11.562;2023-12-20T07:17:37;4.10;99.90
4604;DHT22;2314;48.272;11.562;2023-12-20T07:20:06;4.10;99.90
4604;DHT22;2314;48.272;11.562;2023-12-20T07:22:36;4.10;99.90
4604;DHT22;2314;48.272;11.562;2023-12-20T07:25:04;4.10;99.90
4604;DHT22;2314;48.272;11.562;2023-12-20T07:27:31;4.10;99.90
4604;DHT22;2314;48.272;11.562;2023-12-20T07:29:58;4.10;99.90
4604;DHT22;2314;48.272;11.562;2023-12-20T07:32:27;4.10;99.90
4604;DHT22;2314;48.272;11.562;2023-12-20T07:34:54;4.10;99.90
4604;DHT22;2314;48.272;11.562;2023-12-20T07:37:21;4.10;99.90
4604;DHT22;2314;48.272;11.562;2023-12-20T07:39:48;4.10;99.90
4604;DHT22;2314;48.272;11.562;2023-12-20T07:42:15;4.20;99.90
4604;DHT22;2314;48.272;11.562;2023-12-20T07:44:42;4.20;99.90
4604;DHT22;2314;48.272;11.562;2023-12-20T07:47:09;4.20;99.90
4604;DHT22;2314;48.272;11.562;2023-12-20T07:49:40;4.20;99.90
4604;DHT22;2314;48.272;11.562;2023-12-20T07:52:07;4.30;99.90
4604;DHT22;2314;48.272;11.562;2023-12-20T07:54:34;4.20;99.90
4604;DHT22;2314;48.272;11.562;2023-12-20T07:57:01;4.20;99.90
4604;DHT22;2314;48.272;11.562;2023-12-20T07:59:28;4.30;99.90
4604;DHT22;2314;48.272;11.562;2023-12-20T08:01:55;4.30;99.90
4604;DHT22;2314;48.272;11.562;2023-12-20T08:04:22;4.20;99.90
4604;DHT22;2314;48.272;11.562;2023-12-20T08:06:51;4.30;99.90
4604;DHT22;2314;48.272;11.562;2023-12-20T08:09:18;4.30;99.90
4604;DHT22;2314;48.272;11.562;2023-12-20T08:11:45;4.30;99.90
4604;DHT22;2314;48.272;11.562;2023-12-20T08:14:13;4.30;99.90
4604;DHT22;2314;48.272;11.562;2023-12-20T08:16:40;4.30;99.90
4604;DHT22;2314;48.272;11.562;2023-12-20T08:19:07;4.20;99.90
4604;DHT22;2314;48.272;11.562;2023-12-20T08:21:34;4.30;99.90
4604;DHT22;2314;48.272;11.562;2023-12-20T08:24:03;4.30;99.90
4604;DHT22;2314;48.272;11.562;2023-12-20T08:26:30;4.20;99.90
4604;DHT22;2314;48.272;11.562;2023-12-20T08:28:57;4.20;99.90
4604;DHT22;2314;48.272;11.562;2023-12-20T08:31:24;4.20;99.90
4604;DHT22;2314;48.272;11.562;2023-12-20T08:33:51;4.20;99.90
4604;DHT22;2314;48.272;11.562;2023-12-20T08:36:19;4.20;99.90
4604;DHT22;2314;48.272;11.562;2023-12-20T08:38:47;4.20;99.90
4604;DHT22;2314;48.272;11.562;2023-12-20T08:41:15;4.20;99.90
4604;DHT22;2314;48.272;11.562;2023-12-20T08:43:42;4.30;99.90
4604;DHT22;2314;48.272;11.562;2023-12-20T08:46:09;4.30;99.90
4604;DHT22;2314;48.272;11.562;2023-12-20T08:48:37;4.30;99.90
4604;DHT22;2314;48.272;11.562;2023-12-20T08:51:04;4.40;99.90
4604;DHT22;2314;48.272;11.562;2023-12-20T08:53:32;4.40;99.90
4604;DHT22;2314;48.272;11.562;2023-12-20T08:56:00;4.50;99.90
4604;DHT22;2314;48.272;11.562;2023-12-20T08:58:28;4.60;99.90
4604;DHT22;2314;48.272;11.562;2023-12-20T09:00:55;4.60;99.90
4604;DHT22;2314;48.272;11.562;2023-12-20T09:03:23;4.60;99.90
4604;DHT22;2314;48.272;11.562;2023-12-20T09:05:50;4.60;99.90
4604;DHT22;2314;48.272;11.562;2023-12-20T09:08:17;4.70;99.90
4604;DHT22;2314;48.272;11.562;2023-12-20T09:10:44;4.90;99.90
4604;DHT22;2314;48.272;11.562;2023-12-20T09:13:11;4.90;99.90
4604;DHT22;2314;48.272;11.562;2023-12-20T09:15:39;4.90;99.90
4604;DHT22;2314;48.272;11.562;2023-12-20T09:18:06;4.80;99.90
4604;DHT22;2314;48.272;11.562;2023-12-20T09:20:34;4.80;99.90
4604;DHT22;2314;48.272;11.562;2023-12-20T09:23:01;4.80;99.90
4604;DHT22;2314;48.272;11.562;2023-12-20T09:25:29;4.70;99.90
4604;DHT22;2314;48.272;11.562;2023-12-20T09:27:56;4.70;99.90
4604;DHT22;2314;48.272;11.562;2023-12-20T09:30:23;4.70;99.90
4604;DHT22;2314;48.272;11.562;2023-12-20T09:32:52;4.70;99.90
4604;DHT22;2314;48.272;11.562;2023-12-20T09:35:18;4.80;99.90
4604;DHT22;2314;48.272;11.562;2023-12-20T09:37:45;4.80;99.90
4604;DHT22;2314;48.272;11.562;2023-12-20T09:40:13;4.80;99.90
4604;DHT22;2314;48.272;11.562;2023-12-20T09:42:48;4.80;99.90
4604;DHT22;2314;48.272;11.562;2023-12-20T09:45:20;4.90;99.90
4604;DHT22;2314;48.272;11.562;2023-12-20T09:47:49;4.90;99.90
4604;DHT22;2314;48.272;11.562;2023-12-20T09:50:18;4.90;99.90
4604;DHT22;2314;48.272;11.562;2023-12-20T09:52:49;4.90;99.90
4604;DHT22;2314;48.272;11.562;2023-12-20T09:55:17;5.00;99.90
4604;DHT22;2314;48.272;11.562;2023-12-20T09:57:45;5.10;99.90
4604;DHT22;2314;48.272;11.562;2023-12-20T10:00:14;5.10;99.90
4604;DHT22;2314;48.272;11.562;2023-12-20T10:02:47;5.20;99.90
4604;DHT22;2314;48.272;11.562;2023-12-20T10:05:18;5.30;99.90
4604;DHT22;2314;48.272;11.562;2023-12-20T10:07:53;5.40;99.90
4604;DHT22;2314;48.272;11.562;2023-12-20T10:10:21;5.50;99.90
4604;DHT22;2314;48.272;11.562;2023-12-20T10:13:02;5.50;99.90
4604;DHT22;2314;48.272;11.562;2023-12-20T10:15:30;5.50;99.90
4604;DHT22;2314;48.272;11.562;2023-12-20T10:17:57;5.50;99.90
4604;DHT22;2314;48.272;11.562;2023-12-20T10:20:26;5.60;99.90
4604;DHT22;2314;48.272;11.562;2023-12-20T10:22:54;5.60;99.90
4604;DHT22;2314;48.272;11.562;2023-12-20T10:25:22;5.70;99.90
4604;DHT22;2314;48.272;11.562;2023-12-20T10:27:50;5.80;99.90
4604;DHT22;2314;48.272;11.562;2023-12-20T10:30:17;5.80;99.90
4604;DHT22;2314;48.272;11.562;2023-12-20T10:32:44;5.80;99.90
4604;DHT22;2314;48.272;11.562;2023-12-20T10:35:11;5.80;99.90
4604;DHT22;2314;48.272;11.562;2023-12-20T10:37:40;5.80;99.90
4604;DHT22;2314;48.272;11.562;2023-12-20T10:40:08;5.80;99.90
4604;DHT22;2314;48.272;11.562;2023-12-20T10:42:36;5.70;99.90
4604;DHT22;2314;48.272;11.562;2023-12-20T10:45:05;5.70;99.90
4604;DHT22;2314;48.272;11.562;2023-12-20T10:47:33;5.70;99.90
4604;DHT22;2314;48.272;11.562;2023-12-20T10:50:01;5.70;99.90
4604;DHT22;2314;48.272;11.562;2023-12-20T10:52:29;5.60;99.90
4604;DHT22;2314;48.272;11.562;2023-12-20T10:55:00;5.70;99.90
4604;DHT22;2314;48.272;11.562;2023-12-20T10:57:27;5.70;99.90
4604;DHT22;2314;48.272;11.562;2023-12-20T10:59:56;5.70;99.90
4604;DHT22;2314;48.272;11.562;2023-12-20T11:02:30;5.70;99.90
4604;DHT22;2314;48.272;11.562;2023-12-20T11:05:04;5.70;99.90
4604;DHT22;2314;48.272;11.562;2023-12-20T11:07:38;5.80;99.90
4604;DHT22;2314;48.272;11.562;2023-12-20T11:10:17;5.80;99.90
4604;DHT22;2314;48.272;11.562;2023-12-20T11:13:02;5.90;99.90
4604;DHT22;2314;48.272;11.562;2023-12-20T11:15:35;6.00;99.90
4604;DHT22;2314;48.272;11.562;2023-12-20T11:18:04;6.00;99.90
4604;DHT22;2314;48.272;11.562;2023-12-20T11:20:36;6.00;99.90
4604;DHT22;2314;48.272;11.562;2023-12-20T11:23:04;6.00;99.90
4604;DHT22;2314;48.272;11.562;2023-12-20T11:25:46;6.00;99.90
4604;DHT22;2314;48.272;11.562;2023-12-20T11:28:15;6.00;99.90
4604;DHT22;2314;48.272;11.562;2023-12-20T11:30:47;6.10;99.90
4604;DHT22;2314;48.272;11.562;2023-12-20T11:33:15;6.20;99.90
4604;DHT22;2314;48.272;11.562;2023-12-20T11:35:42;6.40;99.90
4604;DHT22;2314;48.272;11.562;2023-12-20T11:38:10;6.40;99.90
4604;DHT22;2314;48.272;11.562;2023-12-20T11:40:38;6.50;99.90
4604;DHT22;2314;48.272;11.562;2023-12-20T11:43:05;6.50;99.90
4604;DHT22;2314;48.272;11.562;2023-12-20T11:45:32;6.50;99.90
4604;DHT22;2314;48.272;11.562;2023-12-20T11:48:01;6.50;99.90
4604;DHT22;2314;48.272;11.562;2023-12-20T11:50:29;6.50;99.90
4604;DHT22;2314;48.272;11.562;2023-12-20T11:52:56;6.50;99.90
4604;DHT22;2314;48.272;11.562;2023-12-20T11:55:24;6.50;99.90
4604;DHT22;2314;48.272;11.562;2023-12-20T11:57:53;6.50;99.90
4604;DHT22;2314;48.272;11.562;2023-12-20T12:00:20;6.40;99.90
4604;DHT22;2314;48.272;11.562;2023-12-20T12:02:57;6.40;99.90
4604;DHT22;2314;48.272;11.562;2023-12-20T12:05:25;6.30;99.90
4604;DHT22;2314;48.272;11.562;2023-12-20T12:07:52;6.20;99.90
4604;DHT22;2314;48.272;11.562;2023-12-20T12:10:19;6.10;99.90
4604;DHT22;2314;48.272;11.562;2023-12-20T12:12:48;6.10;99.90
4604;DHT22;2314;48.272;11.562;2023-12-20T12:15:16;5.90;99.90
4604;DHT22;2314;48.272;11.562;2023-12-20T12:17:43;5.70;99.90
4604;DHT22;2314;48.272;11.562;2023-12-20T12:20:10;5.50;99.90
4604;DHT22;2314;48.272;11.562;2023-12-20T12:22:38;5.30;99.90
4604;DHT22;2314;48.272;11.562;2023-12-20T12:25:11;5.30;99.90
4604;DHT22;2314;48.272;11.562;2023-12-20T12:27:40;5.20;99.90
4604;DHT22;2314;48.272;11.562;2023-12-20T12:30:09;5.20;99.90
4604;DHT22;2314;48.272;11.562;2023-12-20T12:32:39;5.30;99.90
4604;DHT22;2314;48.272;11.562;2023-12-20T12:35:08;5.30;99.90
4604;DHT22;2314;48.272;11.562;2023-12-20T12:37:38;5.40;99.90
4604;DHT22;2314;48.272;11.562;2023-12-20T12:40:07;5.50;99.90
4604;DHT22;2314;48.272;11.562;2023-12-20T12:42:36;5.60;99.90
4604;DHT22;2314;48.272;11.562;2023-12-20T12:45:04;5.60;99.90
4604;DHT22;2314;48.272;11.562;2023-12-20T12:47:33;5.70;99.90
4604;DHT22;2314;48.272;11.562;2023-12-20T12:50:01;5.70;99.90
4604;DHT22;2314;48.272;11.562;2023-12-20T12:52:30;5.70;99.90
4604;DHT22;2314;48.272;11.562;2023-12-20T12:54:57;5.70;99.90
4604;DHT22;2314;48.272;11.562;2023-12-20T12:57:24;5.70;99.90
4604;DHT22;2314;48.272;11.562;2023-12-20T12:59:52;5.60;99.90
4604;DHT22;2314;48.272;11.562;2023-12-20T13:02:19;5.60;99.90
4604;DHT22;2314;48.272;11.562;2023-12-20T13:04:46;5.50;99.90
4604;DHT22;2314;48.272;11.562;2023-12-20T13:07:14;5.60;99.90
4604;DHT22;2314;48.272;11.562;2023-12-20T13:09:42;5.60;99.90
4604;DHT22;2314;48.272;11.562;2023-12-20T13:12:08;5.60;99.90
4604;DHT22;2314;48.272;11.562;2023-12-20T13:14:35;5.60;99.90
4604;DHT22;2314;48.272;11.562;2023-12-20T13:17:03;5.60;99.90
4604;DHT22;2314;48.272;11.562;2023-12-20T13:19:31;5.60;99.90
4604;DHT22;2314;48.272;11.562;2023-12-20T13:21:58;5.60;99.90
4604;DHT22;2314;48.272;11.562;2023-12-20T13:24:27;5.60;99.90
4604;DHT22;2314;48.272;11.562;2023-12-20T13:26:54;5.70;99.90
4604;DHT22;2314;48.272;11.562;2023-12-20T13:29:22;5.70;99.90
4604;DHT22;2314;48.272;11.562;2023-12-20T13:31:49;5.70;99.90
4604;DHT22;2314;48.272;11.562;2023-12-20T13:34:16;5.60;99.90
4604;DHT22;2314;48.272;11.562;2023-12-20T13:36:43;5.60;99.90
4604;DHT22;2314;48.272;11.562;2023-12-20T13:39:13;5.50;99.90
4604;DHT22;2314;48.272;11.562;2023-12-20T13:41:41;5.50;99.90
4604;DHT22;2314;48.272;11.562;2023-12-20T13:44:08;5.50;99.90
4604;DHT22;2314;48.272;11.562;2023-12-20T13:46:36;5.50;99.90
4604;DHT22;2314;48.272;11.562;2023-12-20T13:49:03;5.50;99.90
4604;DHT22;2314;48.272;11.562;2023-12-20T13:51:31;5.50;99.90
4604;DHT22;2314;48.272;11.562;2023-12-20T13:53:58;5.50;99.90
4604;DHT22;2314;48.272;11.562;2023-12-20T13:56:25;5.50;99.90
4604;DHT22;2314;48.272;11.562;2023-12-20T13:58:54;5.50;99.90
4604;DHT22;2314;48.272;11.562;2023-12-20T14:01:21;5.50;99.90
4604;DHT22;2314;48.272;11.562;2023-12-20T14:03:49;5.40;99.90
4604;DHT22;2314;48.272;11.562;2023-12-20T14:06:16;5.40;99.90
4604;DHT22;2314;48.272;11.562;2023-12-20T14:08:43;5.30;99.90
4604;DHT22;2314;48.272;11.562;2023-12-20T14:11:10;5.30;99.90
4604;DHT22;2314;48.272;11.562;2023-12-20T14:13:38;5.30;99.90
4604;DHT22;2314;48.272;11.562;2023-12-20T14:16:06;5.20;99.90
4604;DHT22;2314;48.272;11.562;2023-12-20T14:18:33;5.20;99.90
4604;DHT22;2314;48.272;11.562;2023-12-20T14:21:00;5.20;99.90
4604;DHT22;2314;48.272;11.562;2023-12-20T14:23:27;5.20;99.90
4604;DHT22;2314;48.272;11.562;2023-12-20T14:25:54;5.10;99.90
4604;DHT22;2314;48.272;11.562;2023-12-20T14:28:21;5.10;99.90
4604;DHT22;2314;48.272;11.562;2023-12-20T14:30:48;5.10;99.90
4604;DHT22;2314;48.272;11.562;2023-12-20T14:33:17;5.00;99.90
4604;DHT22;2314;48.272;11.562;2023-12-20T14:35:46;5.00;99.90
4604;DHT22;2314;48.272;11.562;2023-12-20T14:38:13;5.00;99.90
4604;DHT22;2314;48.272;11.562;2023-12-20T14:40:41;5.00;99.90
4604;DHT22;2314;48.272;11.562;2023-12-20T14:43:08;5.00;99.90
4604;DHT22;2314;48.272;11.562;2023-12-20T14:45:35;5.00;99.90
4604;DHT22;2314;48.272;11.562;2023-12-20T14:48:02;5.00;99.90
4604;DHT22;2314;48.272;11.562;2023-12-20T14:50:30;5.00;99.90
4604;DHT22;2314;48.272;11.562;2023-12-20T14:52:57;4.90;99.90
4604;DHT22;2314;48.272;11.562;2023-12-20T14:55:25;4.90;99.90
4604;DHT22;2314;48.272;11.562;2023-12-20T14:57:53;5.00;99.90
4604;DHT22;2314;48.272;11.562;2023-12-20T15:00:20;4.90;99.90
4604;DHT22;2314;48.272;11.562;2023-12-20T15:02:46;4.90;99.90
4604;DHT22;2314;48.272;11.562;2023-12-20T15:05:13;4.80;99.90
4604;DHT22;2314;48.272;11.562;2023-12-20T15:07:42;4.70;99.90
4604;DHT22;2314;48.272;11.562;2023-12-20T15:10:09;4.60;99.90
4604;DHT22;2314;48.272;11.562;2023-12-20T15:12:36;4.50;99.90
4604;DHT22;2314;48.272;11.562;2023-12-20T15:15:04;4.30;99.90
4604;DHT22;2314;48.272;11.562;2023-12-20T15:17:33;4.20;99.90
4604;DHT22;2314;48.272;11.562;2023-12-20T15:20:01;4.00;99.90
4604;DHT22;2314;48.272;11.562;2023-12-20T15:22:28;3.90;99.90
4604;DHT22;2314;48.272;11.562;2023-12-20T15:24:57;3.80;99.90
4604;DHT22;2314;48.272;11.562;2023-12-20T15:27:24;3.70;99.90
4604;DHT22;2314;48.272;11.562;2023-12-20T15:29:51;3.60;99.90
4604;DHT22;2314;48.272;11.562;2023-12-20T15:32:18;3.60;99.90
4604;DHT22;2314;48.272;11.562;2023-12-20T15:34:46;3.60;99.90
4604;DHT22;2314;48.272;11.562;2023-12-20T15:37:13;3.60;99.90
4604;DHT22;2314;48.272;11.562;2023-12-20T15:39:41;3.50;99.90
4604;DHT22;2314;48.272;11.562;2023-12-20T15:42:10;3.40;99.90
4604;DHT22;2314;48.272;11.562;2023-12-20T15:44:37;3.40;99.90
4604;DHT22;2314;48.272;11.562;2023-12-20T15:47:04;3.30;99.90
4604;DHT22;2314;48.272;11.562;2023-12-20T15:49:31;3.30;99.90
4604;DHT22;2314;48.272;11.562;2023-12-20T15:51:58;3.20;99.90
4604;DHT22;2314;48.272;11.562;2023-12-20T15:54:25;3.20;99.90
4604;DHT22;2314;48.272;11.562;2023-12-20T15:56:52;3.10;99.90
4604;DHT22;2314;48.272;11.562;2023-12-20T15:59:20;3.10;99.90
4604;DHT22;2314;48.272;11.562;2023-12-20T16:01:47;3.10;99.90
4604;DHT22;2314;48.272;11.562;2023-12-20T16:04:14;3.00;99.90
4604;DHT22;2314;48.272;11.562;2023-12-20T16:06:41;2.90;99.90